Time;durP1;ratioP1;P1;durP2;ratioP2;P2;SDS_P1;SDS_P2;PMS_P1;PMS_P2;Temp;Humidity;BMP_temperature;BMP_pressure;BME280_temperature;BME280_humidity;BME280_pressure;Samples;Min_cycle;Max_cycle;Signal;HPM_P1;HPM_P2
2022/10/03 00:01:30;;;;;;;1.02;0.80;;;8.60;99.90;;;;;;5061465;28;20059;-80
2022/10/03 00:04:19;;;;;;;1.27;0.60;;;8.50;99.90;;;;;;5060572;28;20048;-80
2022/10/03 00:07:19;;;;;;;1.25;0.80;;;8.50;99.90;;;;;;5052974;28;20048;-80
2022/10/03 00:10:04;;;;;;;0.80;0.60;;;8.50;99.90;;;;;;5061003;28;20083;-81
2022/10/03 00:13:02;;;;;;;0.93;0.70;;;8.40;99.90;;;;;;5045355;28;20080;-80
2022/10/03 00:15:34;;;;;;;1.25;0.98;;;8.50;99.90;;;;;;5030207;28;20052;-80
2022/10/03 00:18:12;;;;;;;1.17;0.73;;;8.40;99.90;;;;;;5027773;28;20098;-80
2022/10/03 00:20:52;;;;;;;1.90;0.88;;;8.40;99.90;;;;;;5060947;28;20210;-80
2022/10/03 00:23:37;;;;;;;1.42;0.93;;;8.40;99.90;;;;;;5059327;28;20067;-79
2022/10/03 00:26:33;;;;;;;2.08;0.90;;;8.40;99.90;;;;;;5064672;28;20064;-80
2022/10/03 00:29:25;;;;;;;0.68;0.68;;;8.40;99.90;;;;;;5060492;28;20041;-80
2022/10/03 00:32:13;;;;;;;1.27;0.80;;;8.40;99.90;;;;;;5046379;28;20128;-80
2022/10/03 00:34:49;;;;;;;1.02;0.85;;;8.30;99.90;;;;;;5062357;28;20171;-80
2022/10/03 00:37:25;;;;;;;1.40;0.80;;;8.40;99.90;;;;;;5059589;28;20135;-81
2022/10/03 00:40:10;;;;;;;1.27;0.98;;;8.30;99.90;;;;;;5043887;28;20053;-80
2022/10/03 00:43:01;;;;;;;0.80;0.80;;;8.20;99.90;;;;;;5062177;28;20060;-80
2022/10/03 00:45:41;;;;;;;0.85;0.70;;;8.20;99.90;;;;;;5064999;28;20279;-80
2022/10/03 00:48:34;;;;;;;1.38;0.63;;;8.20;99.90;;;;;;5059529;28;20571;-80
2022/10/03 00:51:22;;;;;;;1.50;1.00;;;8.20;99.90;;;;;;5060068;28;20041;-80
2022/10/03 00:53:52;;;;;;;0.88;0.60;;;8.20;99.90;;;;;;5060556;28;20051;-80
2022/10/03 00:57:00;;;;;;;0.77;0.70;;;8.20;99.90;;;;;;5062186;28;20045;-80
2022/10/03 00:59:51;;;;;;;1.15;0.73;;;8.20;99.90;;;;;;5060448;28;20048;-80
2022/10/03 01:02:28;;;;;;;1.02;0.90;;;8.10;99.90;;;;;;5061424;28;20044;-80
2022/10/03 01:05:34;;;;;;;0.98;0.65;;;8.10;99.90;;;;;;5043802;28;20083;-80
2022/10/03 01:08:21;;;;;;;0.90;0.70;;;8.00;99.90;;;;;;5059759;28;20049;-80
2022/10/03 01:11:04;;;;;;;1.05;0.77;;;8.00;99.90;;;;;;5045089;28;20444;-80
2022/10/03 01:13:50;;;;;;;;;;;8.00;99.90;;;;;;5061311;28;20052;-80
2022/10/03 01:16:42;;;;;;;1.45;0.80;;;8.00;99.90;;;;;;5063156;28;20618;-80
2022/10/03 01:19:45;;;;;;;1.38;0.90;;;7.90;99.90;;;;;;5059806;28;20052;-80
2022/10/03 01:22:34;;;;;;;1.17;0.73;;;7.90;99.90;;;;;;5060150;28;20408;-80
2022/10/03 01:25:15;;;;;;;0.77;0.70;;;7.90;99.90;;;;;;5062285;28;20187;-80
2022/10/03 01:30:55;;;;;;;0.70;0.60;;;7.80;99.90;;;;;;5060884;28;20156;-80
2022/10/03 01:33:32;;;;;;;1.05;0.60;;;7.80;99.90;;;;;;5042710;28;20102;-80
2022/10/03 01:36:09;;;;;;;1.30;0.90;;;7.90;99.90;;;;;;5036628;28;20052;-80
2022/10/03 01:39:00;;;;;;;1.25;0.80;;;7.90;99.90;;;;;;5049789;28;20048;-80
2022/10/03 01:41:36;;;;;;;1.15;0.90;;;7.90;99.90;;;;;;5067151;28;20060;-80
2022/10/03 01:44:22;;;;;;;1.13;0.80;;;7.80;99.90;;;;;;5065826;28;20040;-81
2022/10/03 01:47:25;;;;;;;1.20;0.82;;;7.80;99.90;;;;;;5067650;28;20052;-80
2022/10/03 01:50:16;;;;;;;1.63;0.82;;;7.80;99.90;;;;;;5065047;28;20052;-81
2022/10/03 01:52:57;;;;;;;1.10;0.80;;;7.80;99.90;;;;;;5066236;28;20048;-81
2022/10/03 01:56:03;;;;;;;1.30;0.80;;;7.70;99.90;;;;;;5063147;28;20040;-81
2022/10/03 01:59:05;;;;;;;0.80;0.60;;;7.70;99.90;;;;;;5035390;28;20052;-81
2022/10/03 02:01:58;;;;;;;1.02;0.77;;;7.70;99.90;;;;;;5061620;28;20127;-81
2022/10/03 02:04:34;;;;;;;0.47;0.47;;;7.70;99.90;;;;;;5032533;28;20048;-81
2022/10/03 02:07:40;;;;;;;1.00;0.70;;;7.70;99.90;;;;;;5066512;28;20644;-80
2022/10/03 02:10:31;;;;;;;0.85;0.70;;;7.70;99.90;;;;;;5051172;28;20049;-80
2022/10/03 02:13:22;;;;;;;0.90;0.60;;;7.70;99.90;;;;;;5053191;28;20135;-80
2022/10/03 02:16:10;;;;;;;1.52;0.50;;;7.70;99.90;;;;;;5051564;28;20051;-80
2022/10/03 02:18:45;;;;;;;1.63;0.95;;;7.60;99.90;;;;;;5066144;28;20400;-80
2022/10/03 02:21:14;;;;;;;0.90;0.73;;;7.50;99.90;;;;;;5064808;28;20063;-80
2022/10/03 02:23:42;;;;;;;1.42;0.90;;;7.60;99.90;;;;;;5066744;28;20052;-81
2022/10/03 02:26:19;;;;;;;1.10;0.65;;;7.60;99.90;;;;;;5048699;28;20080;-80
2022/10/03 02:29:16;;;;;;;1.73;0.80;;;7.60;99.90;;;;;;5065268;28;20045;-80
2022/10/03 02:32:20;;;;;;;0.82;0.63;;;7.60;99.90;;;;;;5049815;28;20630;-79
2022/10/03 02:35:15;;;;;;;1.20;0.75;;;7.50;99.90;;;;;;5068572;28;20048;-80
2022/10/03 02:38:00;;;;;;;0.93;0.63;;;7.50;99.90;;;;;;5065705;28;20059;-81
2022/10/03 02:40:48;;;;;;;1.42;0.90;;;7.40;99.90;;;;;;5064572;28;20059;-80
2022/10/03 02:43:42;;;;;;;0.63;0.60;;;7.40;99.90;;;;;;5067929;28;20063;-80
2022/10/03 02:46:45;;;;;;;0.77;0.50;;;7.40;99.90;;;;;;5065461;28;20192;-80
2022/10/03 02:49:30;;;;;;;1.58;0.75;;;7.40;99.90;;;;;;5034201;28;20597;-80
2022/10/03 02:52:34;;;;;;;0.73;0.63;;;7.40;99.90;;;;;;5064140;28;20048;-79
2022/10/03 02:55:22;;;;;;;0.52;0.40;;;7.30;99.90;;;;;;5064336;28;20058;-80
2022/10/03 02:58:25;;;;;;;0.80;0.70;;;7.40;99.90;;;;;;5065632;28;20056;-80
2022/10/03 03:01:19;;;;;;;0.70;0.60;;;7.40;99.90;;;;;;5050411;28;20044;-80
2022/10/03 03:04:13;;;;;;;0.75;0.73;;;7.40;99.90;;;;;;5050984;28;20094;-80
2022/10/03 03:06:48;;;;;;;0.77;0.55;;;7.30;99.90;;;;;;5066442;28;20048;-80
2022/10/03 03:09:33;;;;;;;0.95;0.75;;;7.30;99.90;;;;;;5047586;28;20040;-80
2022/10/03 03:12:20;;;;;;;0.60;0.50;;;7.30;99.90;;;;;;5065616;28;20045;-80
2022/10/03 03:14:56;;;;;;;1.20;0.55;;;7.30;99.90;;;;;;5066246;28;20069;-80
2022/10/03 03:17:52;;;;;;;0.65;0.57;;;7.30;99.90;;;;;;5063813;28;20456;-81
2022/10/03 03:20:36;;;;;;;0.88;0.60;;;7.30;99.90;;;;;;5043123;28;20048;-80
2022/10/03 03:23:02;;;;;;;;;;;7.30;99.90;;;;;;5064214;28;20070;-79
2022/10/03 03:25:51;;;;;;;1.60;1.50;;;7.30;99.90;;;;;;5068319;28;20482;-80
2022/10/03 03:28:40;;;;;;;1.30;0.60;;;7.30;99.90;;;;;;5065014;28;20040;-80
2022/10/03 03:31:10;;;;;;;0.73;0.70;;;7.30;99.90;;;;;;5031787;28;20510;-80
2022/10/03 03:34:10;;;;;;;1.30;0.70;;;7.30;99.90;;;;;;5049968;28;20072;-79
2022/10/03 03:37:05;;;;;;;0.80;0.65;;;7.30;99.90;;;;;;5063335;28;20075;-80
2022/10/03 03:39:37;;;;;;;1.00;0.70;;;7.30;99.90;;;;;;5062692;28;20055;-81
2022/10/03 03:42:33;;;;;;;0.95;0.70;;;7.30;99.90;;;;;;5065074;28;20041;-81
2022/10/03 03:45:18;;;;;;;2.03;0.90;;;7.30;99.90;;;;;;5064491;28;20408;-81
2022/10/03 03:48:04;;;;;;;0.57;0.57;;;7.30;99.90;;;;;;5063509;28;20056;-81
2022/10/03 03:51:05;;;;;;;0.70;0.60;;;7.30;99.90;;;;;;5062957;28;20485;-81
2022/10/03 03:53:49;;;;;;;0.93;0.60;;;7.20;99.90;;;;;;5045669;28;20076;-80
2022/10/03 03:56:32;;;;;;;0.82;0.50;;;7.20;99.90;;;;;;5062047;28;20047;-81
2022/10/03 03:59:06;;;;;;;;;;;7.20;99.90;;;;;;5064009;28;20882;-80
2022/10/03 04:01:58;;;;;;;0.70;0.52;;;7.20;99.90;;;;;;5059634;28;19925;-80
2022/10/03 04:04:50;;;;;;;0.55;0.43;;;7.30;99.90;;;;;;5069918;28;20044;-79
2022/10/03 04:07:37;;;;;;;0.50;0.50;;;7.20;99.90;;;;;;5060756;28;20129;-80
2022/10/03 04:10:25;;;;;;;1.00;0.80;;;7.20;99.90;;;;;;5062978;28;20048;-80
2022/10/03 04:13:30;;;;;;;0.63;0.60;;;7.30;99.90;;;;;;5056802;28;20048;-80
2022/10/03 04:19:47;;;;;;;1.15;0.70;;;7.10;99.90;;;;;;5062484;28;20044;-80
2022/10/03 04:22:23;;;;;;;0.95;0.75;;;7.10;99.90;;;;;;5062329;28;20433;-80
2022/10/03 04:25:19;;;;;;;1.15;0.70;;;7.10;99.90;;;;;;5069423;28;20051;-80
2022/10/03 04:28:12;;;;;;;0.90;0.50;;;7.10;99.90;;;;;;5062929;28;20078;-80
2022/10/03 04:30:58;;;;;;;0.53;0.53;;;7.10;99.90;;;;;;5046298;28;20056;-79
2022/10/03 04:33:31;;;;;;;0.60;0.60;;;7.10;99.90;;;;;;5063631;28;20754;-81
2022/10/03 04:36:30;;;;;;;1.38;0.63;;;7.10;99.90;;;;;;5031474;28;20054;-81
2022/10/03 04:39:16;;;;;;;0.88;0.55;;;7.10;99.90;;;;;;5062364;28;20048;-80
2022/10/03 04:41:53;;;;;;;1.10;0.50;;;7.10;99.90;;;;;;5064399;28;20044;-81
2022/10/03 04:44:32;;;;;;;0.60;0.60;;;7.10;99.90;;;;;;5059678;28;20040;-81
2022/10/03 04:47:18;;;;;;;1.20;0.70;;;7.10;99.90;;;;;;5058871;28;20048;-80
2022/10/03 04:49:51;;;;;;;1.02;0.70;;;7.20;99.90;;;;;;5060642;28;20060;-80
2022/10/03 04:52:36;;;;;;;1.10;0.50;;;7.20;99.90;;;;;;5045689;28;20041;-81
2022/10/03 04:55:18;;;;;;;0.50;0.50;;;7.20;99.90;;;;;;5044007;28;20055;-80
2022/10/03 04:58:03;;;;;;;0.77;0.57;;;7.20;99.90;;;;;;5048108;28;20419;-80
2022/10/03 05:00:58;;;;;;;0.82;0.70;;;7.20;99.90;;;;;;5046394;28;20498;-80
2022/10/03 05:03:25;;;;;;;1.55;0.75;;;7.20;99.90;;;;;;5060692;28;20063;-81
2022/10/03 05:06:34;;;;;;;0.68;0.55;;;7.30;99.90;;;;;;5062155;28;20051;-80
2022/10/03 05:09:16;;;;;;;0.90;0.60;;;7.30;99.90;;;;;;5043174;28;20075;-81
2022/10/03 05:12:02;;;;;;;1.02;0.60;;;7.30;99.90;;;;;;5066348;28;20131;-81
2022/10/03 05:14:36;;;;;;;0.43;0.43;;;7.30;99.90;;;;;;5071690;28;20059;-80
2022/10/03 05:17:32;;;;;;;1.00;0.75;;;7.30;99.90;;;;;;5040972;28;20059;-82
2022/10/03 05:20:22;;;;;;;0.57;0.50;;;7.30;99.90;;;;;;5054960;28;20044;-81
2022/10/03 05:23:06;;;;;;;1.08;0.70;;;7.30;99.90;;;;;;5064059;28;20066;-81
2022/10/03 05:25:59;;;;;;;0.80;0.70;;;7.30;99.90;;;;;;5039847;28;20048;-81
2022/10/03 05:29:05;;;;;;;0.85;0.70;;;7.30;99.90;;;;;;5051643;28;20059;-82
2022/10/03 05:32:24;;;;;;;0.88;0.68;;;7.30;99.90;;;;;;5054954;28;20052;-81
2022/10/03 05:35:03;;;;;;;1.48;1.10;;;7.30;99.90;;;;;;5025332;28;20047;-81
2022/10/03 05:37:34;;;;;;;0.82;0.60;;;7.30;99.90;;;;;;5034511;28;20052;-81
2022/10/03 05:40:20;;;;;;;1.50;0.88;;;7.40;99.90;;;;;;5027655;28;20052;-82
2022/10/03 05:42:50;;;;;;;0.50;0.50;;;7.30;99.90;;;;;;5060071;28;20149;-78
2022/10/03 05:45:38;;;;;;;1.55;0.93;;;7.40;99.90;;;;;;5054722;28;20066;-81
2022/10/03 05:48:28;;;;;;;0.65;0.65;;;7.30;99.90;;;;;;5043469;28;20440;-81
2022/10/03 05:51:38;;;;;;;0.77;0.63;;;7.40;99.90;;;;;;5048068;28;20052;-83
2022/10/03 05:54:33;;;;;;;0.77;0.77;;;7.40;99.90;;;;;;5058508;28;20437;-82
2022/10/03 05:57:07;;;;;;;0.80;0.75;;;7.40;99.90;;;;;;5044573;28;20062;-83
2022/10/03 05:59:45;;;;;;;0.80;0.60;;;7.40;99.90;;;;;;5048129;28;20062;-81
2022/10/03 06:02:31;;;;;;;1.23;0.82;;;7.40;99.90;;;;;;5056478;28;20608;-83
2022/10/03 06:05:29;;;;;;;2.25;1.23;;;7.40;99.90;;;;;;5057536;28;20047;-83
2022/10/03 06:08:06;;;;;;;0.70;0.60;;;7.40;99.90;;;;;;5053765;28;20070;-82
2022/10/03 06:10:56;;;;;;;0.80;0.60;;;7.40;99.90;;;;;;5052501;28;20052;-82
2022/10/03 06:13:33;;;;;;;0.93;0.70;;;7.50;99.90;;;;;;5052881;28;20045;-83
2022/10/03 06:16:20;;;;;;;0.70;0.60;;;7.40;99.90;;;;;;5046904;28;20045;-84
2022/10/03 06:19:09;;;;;;;0.30;0.30;;;7.40;99.90;;;;;;5050065;28;20056;-84
2022/10/03 06:21:42;;;;;;;0.63;0.60;;;7.50;99.90;;;;;;5058830;28;20495;-85
2022/10/03 06:24:21;;;;;;;0.57;0.57;;;7.50;99.90;;;;;;5068489;28;20136;-85
2022/10/03 06:27:06;;;;;;;1.00;0.70;;;7.50;99.90;;;;;;5071151;28;20076;-86
2022/10/03 06:30:14;;;;;;;0.82;0.55;;;7.60;99.90;;;;;;5046662;28;20055;-85
2022/10/03 06:33:00;;;;;;;0.47;0.47;;;7.60;99.90;;;;;;5042610;28;20049;-86
2022/10/03 06:35:48;;;;;;;0.50;0.50;;;7.60;99.90;;;;;;5051090;28;20048;-85
2022/10/03 06:38:39;;;;;;;0.52;0.50;;;7.70;99.90;;;;;;5045322;28;20528;-85
2022/10/03 06:41:09;;;;;;;0.70;0.68;;;7.80;99.90;;;;;;5033930;28;20091;-85
2022/10/03 06:44:00;;;;;;;0.50;0.50;;;7.80;99.90;;;;;;5056363;28;20052;-85
2022/10/03 06:46:49;;;;;;;0.47;0.47;;;7.90;99.90;;;;;;5058651;28;20057;-85
2022/10/03 06:49:53;;;;;;;0.40;0.40;;;8.00;99.90;;;;;;5045753;28;20060;-85
2022/10/03 06:52:25;;;;;;;0.38;0.38;;;8.10;99.90;;;;;;5034932;28;20076;-86
2022/10/03 06:55:26;;;;;;;0.38;0.38;;;8.20;99.90;;;;;;5053442;28;20041;-86
2022/10/03 06:57:58;;;;;;;0.52;0.52;;;8.30;99.90;;;;;;5065621;28;20048;-86
2022/10/03 07:00:43;;;;;;;0.50;0.50;;;8.40;99.90;;;;;;5064453;28;20044;-86
2022/10/03 07:03:36;;;;;;;0.55;0.50;;;8.50;99.90;;;;;;5064587;28;20349;-85
2022/10/03 07:06:20;;;;;;;0.50;0.50;;;8.60;99.90;;;;;;5064374;28;20453;-85
2022/10/03 07:08:53;;;;;;;0.43;0.40;;;8.60;99.90;;;;;;5051119;28;20067;-85
2022/10/03 07:11:38;;;;;;;0.57;0.57;;;8.80;99.90;;;;;;5058303;28;20052;-86
2022/10/03 07:14:20;;;;;;;0.35;0.35;;;8.80;99.90;;;;;;5053314;28;20527;-86
2022/10/03 07:16:50;;;;;;;0.60;0.55;;;8.90;99.90;;;;;;5068835;28;20155;-86
2022/10/03 07:19:34;;;;;;;0.40;0.40;;;9.00;99.90;;;;;;5088243;28;20048;-85
2022/10/03 07:22:17;;;;;;;0.40;0.40;;;9.10;99.90;;;;;;5055932;28;20103;-85
2022/10/03 07:25:08;;;;;;;0.50;0.40;;;9.20;99.90;;;;;;5085107;28;20048;-84
2022/10/03 07:28:13;;;;;;;0.77;0.52;;;9.30;99.90;;;;;;5088065;28;20044;-85
2022/10/03 07:31:08;;;;;;;0.38;0.35;;;9.40;99.90;;;;;;5073332;28;20132;-84
2022/10/03 07:34:15;;;;;;;0.80;0.60;;;9.50;99.90;;;;;;5075457;28;20044;-84
2022/10/03 07:39:41;;;;;;;0.35;0.35;;;9.70;99.90;;;;;;5085643;28;20070;-85
2022/10/03 07:42:30;;;;;;;1.33;0.60;;;9.80;99.90;;;;;;5087562;28;20048;-84
2022/10/03 07:45:06;;;;;;;0.55;0.47;;;10.00;99.90;;;;;;5051579;28;20191;-85
2022/10/03 07:47:41;;;;;;;0.47;0.40;;;10.10;99.90;;;;;;5086370;28;20059;-84
2022/10/03 07:50:23;;;;;;;0.57;0.57;;;10.10;99.90;;;;;;5085249;28;20226;-85
2022/10/03 07:52:59;;;;;;;0.47;0.47;;;10.20;99.90;;;;;;5086208;28;20056;-84
2022/10/03 07:55:34;;;;;;;0.68;0.63;;;10.30;99.90;;;;;;5079167;28;20044;-85
2022/10/03 07:58:25;;;;;;;0.60;0.60;;;10.40;99.90;;;;;;5048933;28;20518;-85
2022/10/03 08:01:15;;;;;;;0.68;0.40;;;10.50;99.90;;;;;;5051366;28;20048;-84
2022/10/03 08:04:09;;;;;;;0.50;0.50;;;10.60;99.90;;;;;;5060237;28;20475;-84
2022/10/03 08:07:15;;;;;;;0.50;0.40;;;10.70;99.90;;;;;;5054364;28;20044;-84
2022/10/03 08:10:12;;;;;;;0.50;0.50;;;10.90;99.90;;;;;;5036104;28;20082;-84
2022/10/03 08:13:09;;;;;;;0.55;0.55;;;11.00;99.90;;;;;;5057210;28;20056;-84
2022/10/03 08:15:56;;;;;;;0.40;0.40;;;11.10;99.90;;;;;;5049775;28;20091;-83
2022/10/03 08:18:29;;;;;;;0.88;0.50;;;11.20;99.90;;;;;;5055328;28;20063;-83
2022/10/03 08:21:08;;;;;;;0.50;0.50;;;11.40;99.90;;;;;;5045663;28;20045;-83
2022/10/03 08:24:13;;;;;;;0.73;0.60;;;11.50;99.90;;;;;;5035697;28;20057;-84
2022/10/03 08:26:49;;;;;;;0.63;0.50;;;11.60;99.90;;;;;;5062858;28;20062;-83
2022/10/03 08:29:44;;;;;;;0.90;0.50;;;11.70;99.90;;;;;;5043875;28;20049;-83
2022/10/03 08:32:33;;;;;;;0.73;0.40;;;11.90;99.90;;;;;;5039469;28;20049;-83
2022/10/03 08:35:18;;;;;;;0.77;0.65;;;12.00;99.90;;;;;;5045470;28;20060;-84
2022/10/03 08:38:07;;;;;;;0.40;0.40;;;12.20;99.90;;;;;;5049310;28;20045;-84
2022/10/03 08:40:42;;;;;;;0.70;0.55;;;12.30;99.90;;;;;;5044701;28;21380;-83
2022/10/03 08:43:16;;;;;;;0.70;0.50;;;12.50;99.90;;;;;;5050935;28;20048;-84
2022/10/03 08:45:42;;;;;;;;;;;12.60;99.90;;;;;;5052434;28;20060;-83
2022/10/03 08:48:12;;;;;;;0.60;0.50;;;12.70;99.90;;;;;;5047353;28;20362;-84
2022/10/03 08:51:30;;;;;;;0.88;0.55;;;12.90;99.90;;;;;;5055306;28;20503;-84
2022/10/03 08:54:19;;;;;;;0.50;0.40;;;13.10;99.90;;;;;;5045350;28;20289;-80
2022/10/03 08:56:47;;;;;;;0.65;0.40;;;13.30;99.90;;;;;;5049011;28;20150;-81
2022/10/03 08:59:40;;;;;;;1.38;0.70;;;13.50;99.90;;;;;;5041266;28;20345;-81
2022/10/03 09:02:25;;;;;;;0.93;0.80;;;13.70;99.90;;;;;;5046222;28;20045;-81
2022/10/03 09:05:07;;;;;;;1.23;0.85;;;13.80;99.90;;;;;;5048893;28;20041;-81
2022/10/03 09:08:11;;;;;;;0.80;0.70;;;14.00;99.90;;;;;;5048690;28;20072;-81
2022/10/03 09:11:15;;;;;;;0.50;0.40;;;14.20;99.90;;;;;;5043815;28;20052;-81
2022/10/03 09:13:45;;;;;;;0.85;0.60;;;14.40;99.90;;;;;;5069807;28;20048;-81
2022/10/03 09:16:37;;;;;;;0.80;0.75;;;14.50;99.90;;;;;;5086036;28;20075;-81
2022/10/03 09:19:26;;;;;;;1.13;0.70;;;14.60;99.90;;;;;;5085851;28;20050;-81
2022/10/03 09:21:53;;;;;;;0.50;0.50;;;14.70;99.90;;;;;;5089333;28;20048;-80
2022/10/03 09:24:54;;;;;;;0.50;0.50;;;14.70;99.90;;;;;;5086665;28;20386;-81
2022/10/03 09:27:27;;;;;;;0.80;0.50;;;14.80;99.90;;;;;;5086416;28;20055;-81
2022/10/03 09:30:00;;;;;;;;;;;14.80;99.90;;;;;;5089507;28;20047;-81
2022/10/03 09:33:02;;;;;;;0.70;0.67;;;14.90;99.90;;;;;;5089060;28;20375;-81
2022/10/03 09:36:03;;;;;;;0.75;0.57;;;14.90;99.90;;;;;;5087836;28;20054;-80
2022/10/03 09:38:51;;;;;;;0.88;0.50;;;15.00;99.90;;;;;;5088974;28;20055;-81
2022/10/03 09:41:24;;;;;;;0.52;0.43;;;15.10;99.90;;;;;;5089273;28;20040;-81
2022/10/03 09:44:29;;;;;;;0.30;0.30;;;15.10;99.90;;;;;;5087995;28;20052;-81
2022/10/03 09:47:27;;;;;;;0.60;0.40;;;15.20;99.90;;;;;;5087665;28;20127;-81
2022/10/03 09:50:31;;;;;;;0.65;0.50;;;15.40;99.90;;;;;;5088913;28;20052;-81
2022/10/03 09:53:33;;;;;;;0.85;0.43;;;15.70;99.90;;;;;;5088723;28;20048;-81
2022/10/03 09:56:21;;;;;;;0.90;0.75;;;16.00;99.90;;;;;;5086707;28;20527;-81
2022/10/03 09:58:54;;;;;;;0.30;0.30;;;16.20;99.90;;;;;;5089409;28;20135;-81
2022/10/03 10:01:25;;;;;;;0.55;0.35;;;16.40;99.90;;;;;;5087493;28;20048;-81
2022/10/03 10:04:17;;;;;;;0.47;0.47;;;16.60;99.90;;;;;;5076880;28;20044;-81
2022/10/03 10:07:27;;;;;;;0.93;0.38;;;16.70;99.90;;;;;;5087086;28;20317;-81
2022/10/03 10:10:03;;;;;;;0.35;0.35;;;16.90;99.90;;;;;;5089003;28;20048;-81
2022/10/03 10:12:44;;;;;;;0.50;0.47;;;17.10;99.90;;;;;;5087175;28;20054;-81
2022/10/03 10:15:17;;;;;;;0.47;0.47;;;17.20;99.90;;;;;;5072159;28;20052;-81
2022/10/03 10:17:56;;;;;;;1.20;0.50;;;17.30;99.90;;;;;;5088113;28;20054;-81
2022/10/03 10:20:32;;;;;;;0.70;0.50;;;17.50;99.90;;;;;;5088812;28;20601;-81
2022/10/03 10:23:10;;;;;;;0.65;0.60;;;17.60;99.90;;;;;;5087110;28;20175;-81
2022/10/03 10:26:05;;;;;;;0.82;0.60;;;17.80;99.90;;;;;;5084191;28;20483;-81
2022/10/03 10:28:59;;;;;;;0.93;0.60;;;18.10;99.90;;;;;;5083762;28;20044;-81
2022/10/03 10:32:00;;;;;;;0.98;0.55;;;18.30;99.90;;;;;;5086342;28;20091;-81
2022/10/03 10:34:42;;;;;;;0.40;0.40;;;18.50;99.90;;;;;;5053757;28;20056;-81
2022/10/03 10:37:17;;;;;;;1.20;0.88;;;18.70;99.90;;;;;;5086442;28;20074;-81
2022/10/03 10:39:59;;;;;;;0.52;0.43;;;18.80;99.90;;;;;;5086448;28;20486;-81
2022/10/03 10:42:48;;;;;;;0.70;0.50;;;18.90;99.90;;;;;;5087679;28;20055;-81
2022/10/03 10:45:37;;;;;;;1.10;0.70;;;19.10;99.90;;;;;;5086663;28;20233;-81
2022/10/03 10:48:17;;;;;;;0.77;0.50;;;19.10;99.90;;;;;;5081929;28;20601;-81
2022/10/03 10:51:22;;;;;;;1.13;0.88;;;19.20;99.90;;;;;;5066759;28;20503;-81
2022/10/03 10:54:23;;;;;;;1.52;0.70;;;19.20;99.90;;;;;;5082531;28;20044;-82
2022/10/03 10:56:55;;;;;;;0.93;0.50;;;19.10;99.90;;;;;;5084170;28;20051;-82
2022/10/03 10:59:59;;;;;;;0.60;0.45;;;19.20;99.90;;;;;;5083499;28;20064;-81
2022/10/03 11:02:58;;;;;;;1.58;0.80;;;19.40;99.90;;;;;;5084568;28;20423;-81
2022/10/03 11:05:33;;;;;;;1.00;0.50;;;19.50;99.90;;;;;;5085726;28;20059;-81
2022/10/03 11:08:05;;;;;;;0.63;0.50;;;19.60;99.90;;;;;;5086433;28;20044;-82
2022/10/03 11:10:35;;;;;;;0.70;0.50;;;19.60;99.90;;;;;;5085856;28;20459;-81
2022/10/03 11:13:03;;;;;;;0.50;0.40;;;19.70;99.90;;;;;;5087123;28;20483;-82
2022/10/03 11:15:54;;;;;;;0.85;0.60;;;19.80;99.90;;;;;;5087339;28;20059;-81
2022/10/03 11:19:01;;;;;;;0.55;0.38;;;19.90;99.90;;;;;;5087000;28;20047;-81
2022/10/03 11:21:46;;;;;;;0.35;0.30;;;20.20;99.90;;;;;;5063233;28;20052;-82
2022/10/03 11:24:35;;;;;;;0.60;0.38;;;20.50;99.90;;;;;;5084624;28;20059;-82
2022/10/03 11:27:32;;;;;;;0.63;0.22;;;20.80;99.90;;;;;;5084503;28;20051;-82
2022/10/03 11:30:36;;;;;;;0.85;0.45;;;20.90;99.90;;;;;;5083853;28;20067;-81
2022/10/03 11:33:23;;;;;;;1.33;0.60;;;21.20;99.90;;;;;;5083412;28;20051;-82
2022/10/03 11:36:21;;;;;;;0.45;0.45;;;21.50;99.90;;;;;;5085088;28;20511;-81
2022/10/03 11:39:05;;;;;;;0.40;0.40;;;21.70;99.90;;;;;;5084959;28;20408;-82
2022/10/03 11:41:50;;;;;;;0.65;0.40;;;21.60;99.90;;;;;;5083794;28;20051;-81
2022/10/03 11:44:27;;;;;;;0.73;0.52;;;21.50;99.90;;;;;;5083675;28;20159;-81
2022/10/03 11:47:38;;;;;;;0.63;0.50;;;21.50;99.90;;;;;;5086602;28;20407;-81
2022/10/03 11:50:34;;;;;;;1.33;0.70;;;21.60;99.90;;;;;;5062500;28;20070;-81
2022/10/03 11:53:07;;;;;;;1.15;0.70;;;21.80;99.90;;;;;;5082201;28;20562;-81
2022/10/03 11:55:38;;;;;;;1.08;0.73;;;21.90;99.90;;;;;;5082063;28;20498;-81
2022/10/03 11:58:10;;;;;;;;;;;22.30;99.90;;;;;;5085193;28;20106;-81
2022/10/03 12:00:37;;;;;;;1.08;0.68;;;22.60;99.90;;;;;;5086766;28;19920;-81
2022/10/03 12:03:28;;;;;;;0.95;0.70;;;23.10;99.90;;;;;;5084439;28;20058;-81
2022/10/03 12:09:05;;;;;;;0.82;0.50;;;23.70;99.30;;;;;;5071412;28;20055;-82
2022/10/03 12:11:36;;;;;;;0.98;0.60;;;23.80;99.20;;;;;;5070021;28;20379;-82
2022/10/03 12:14:15;;;;;;;1.33;0.68;;;23.50;98.80;;;;;;5086238;28;20050;-82
2022/10/03 12:17:14;;;;;;;1.35;0.65;;;23.00;99.70;;;;;;5086572;28;20395;-81
2022/10/03 12:20:05;;;;;;;1.88;0.80;;;22.40;99.90;;;;;;5062908;28;20066;-81
2022/10/03 12:22:38;;;;;;;1.13;0.55;;;21.80;99.90;;;;;;5085547;28;20290;-81
2022/10/03 12:25:25;;;;;;;1.33;0.70;;;21.50;99.90;;;;;;5064706;28;20052;-81
2022/10/03 12:28:06;;;;;;;1.40;0.43;;;21.70;99.90;;;;;;5044673;28;20052;-82
2022/10/03 12:30:46;;;;;;;0.82;0.52;;;21.90;99.90;;;;;;5052082;28;20049;-85
2022/10/03 12:33:47;;;;;;;1.85;1.00;;;21.90;99.90;;;;;;5051130;28;20102;-82
2022/10/03 12:36:15;;;;;;;0.52;0.50;;;21.80;99.90;;;;;;5037160;28;20148;-81
2022/10/03 12:39:05;;;;;;;0.45;0.38;;;21.70;99.90;;;;;;5042182;28;20049;-82
2022/10/03 12:42:04;;;;;;;2.25;0.75;;;21.60;99.90;;;;;;5035811;28;20052;-82
2022/10/03 12:44:49;;;;;;;0.70;0.40;;;21.40;99.90;;;;;;5072171;28;20056;-82
2022/10/03 12:47:33;;;;;;;0.77;0.55;;;21.40;99.90;;;;;;5044629;28;20053;-82
2022/10/03 12:50:35;;;;;;;0.50;0.50;;;21.60;99.90;;;;;;5048696;28;20048;-83
2022/10/03 12:53:18;;;;;;;1.60;0.80;;;22.30;99.90;;;;;;5059944;28;20048;-83
2022/10/03 12:56:14;;;;;;;0.75;0.50;;;22.60;99.90;;;;;;5065765;28;20060;-83
2022/10/03 12:58:46;;;;;;;1.08;0.50;;;22.90;99.90;;;;;;5043519;28;20408;-83
2022/10/03 13:01:28;;;;;;;0.50;0.40;;;23.10;99.90;;;;;;5031847;28;20071;-82
2022/10/03 13:04:22;;;;;;;1.20;0.60;;;22.90;99.90;;;;;;5058404;28;20186;-82
2022/10/03 13:07:10;;;;;;;1.08;0.65;;;22.60;99.90;;;;;;5059351;28;20060;-83
2022/10/03 13:09:43;;;;;;;0.77;0.30;;;22.30;99.90;;;;;;5044532;28;20056;-83
2022/10/03 13:12:39;;;;;;;1.10;0.68;;;22.20;99.90;;;;;;5055065;28;20060;-83
2022/10/03 13:15:41;;;;;;;1.05;0.60;;;22.10;99.90;;;;;;5059904;28;20295;-82
2022/10/03 13:18:46;;;;;;;0.50;0.40;;;22.00;99.90;;;;;;5048897;28;20053;-83
2022/10/03 13:21:18;;;;;;;1.83;0.60;;;21.90;99.90;;;;;;5043292;28;20049;-83
2022/10/03 13:24:17;;;;;;;0.93;0.50;;;22.00;99.90;;;;;;5063568;28;20384;-83
2022/10/03 13:26:47;;;;;;;1.55;0.80;;;22.20;99.90;;;;;;5052791;28;20450;-83
2022/10/03 13:29:13;;;;;;;1.10;0.77;;;22.20;99.90;;;;;;5049366;28;20412;-82
2022/10/03 13:32:38;;;;;;;0.93;0.55;;;22.30;99.90;;;;;;5066619;28;20401;-83
2022/10/03 13:38:30;;;;;;;0.90;0.57;;;22.60;99.90;;;;;;5009676;28;20418;-83
2022/10/03 13:41:05;;;;;;;0.47;0.40;;;22.50;99.90;;;;;;5050814;28;20073;-82
2022/10/03 13:43:35;;;;;;;1.00;0.70;;;22.40;99.90;;;;;;5050354;28;20057;-83
2022/10/03 13:46:10;;;;;;;1.05;0.50;;;22.30;99.90;;;;;;5075596;28;20574;-83
2022/10/03 13:48:37;;;;;;;0.60;0.50;;;22.30;99.90;;;;;;5065415;28;20114;-83
2022/10/03 13:51:30;;;;;;;1.25;0.60;;;22.30;99.90;;;;;;5051332;28;20169;-82
2022/10/03 13:54:20;;;;;;;0.90;0.50;;;22.30;99.90;;;;;;5078271;28;20048;-83
2022/10/03 13:56:58;;;;;;;0.77;0.43;;;22.40;99.90;;;;;;5055407;28;20062;-83
2022/10/03 13:59:34;;;;;;;1.92;0.82;;;22.30;99.90;;;;;;5051437;28;20052;-82
2022/10/03 14:02:12;;;;;;;0.43;0.40;;;22.30;99.90;;;;;;5052295;28;20051;-83
2022/10/03 14:05:00;;;;;;;0.80;0.50;;;22.50;99.90;;;;;;5082917;28;20055;-83
2022/10/03 14:07:33;;;;;;;0.73;0.55;;;22.60;99.90;;;;;;5067079;28;20043;-82
2022/10/03 14:10:08;;;;;;;0.98;0.60;;;22.50;99.90;;;;;;5085037;28;20448;-82
2022/10/03 14:12:47;;;;;;;0.98;0.47;;;22.50;99.90;;;;;;5070938;28;20048;-83
2022/10/03 14:15:40;;;;;;;1.20;0.55;;;22.40;99.90;;;;;;5086959;28;20044;-83
2022/10/03 14:18:11;;;;;;;0.77;0.50;;;22.40;99.90;;;;;;5069201;28;20487;-83
2022/10/03 14:21:16;;;;;;;1.40;0.63;;;22.00;99.90;;;;;;5051865;28;20053;-82
2022/10/03 14:23:44;;;;;;;0.93;0.50;;;21.90;99.90;;;;;;5056320;28;20040;-82
2022/10/03 14:26:23;;;;;;;0.32;0.32;;;21.80;99.90;;;;;;5074113;28;20662;-82
2022/10/03 14:29:00;;;;;;;0.95;0.40;;;21.70;99.90;;;;;;5085092;28;20066;-82
2022/10/03 14:31:39;;;;;;;0.70;0.40;;;21.60;99.90;;;;;;5070806;28;20068;-82
2022/10/03 14:34:21;;;;;;;0.68;0.40;;;21.70;99.90;;;;;;5087154;28;20062;-82
2022/10/03 14:37:17;;;;;;;0.80;0.50;;;21.70;99.90;;;;;;5067703;28;20048;-83
2022/10/03 14:40:15;;;;;;;0.57;0.43;;;21.60;99.90;;;;;;5051004;28;20055;-82
2022/10/03 14:42:45;;;;;;;0.32;0.30;;;21.50;99.90;;;;;;5065551;28;20044;-82
2022/10/03 14:45:17;;;;;;;0.55;0.40;;;21.60;99.90;;;;;;5086983;28;20055;-83
2022/10/03 14:47:50;;;;;;;1.17;0.50;;;21.60;99.90;;;;;;5069552;28;20058;-83